sensor_id;sensor_type;location;lat;lon;timestamp;temperature;humidity
9885;DHT22;4981;50.966;4.842;2022-09-30T00:02:19;7.30;1.00
9885;DHT22;4981;50.966;4.842;2022-09-30T00:04:47;7.20;1.00
9885;DHT22;4981;50.966;4.842;2022-09-30T00:07:14;7.30;1.00
9885;DHT22;4981;50.966;4.842;2022-09-30T00:09:42;7.20;1.00
9885;DHT22;4981;50.966;4.842;2022-09-30T00:12:09;7.10;1.00
9885;DHT22;4981;50.966;4.842;2022-09-30T00:14:36;7.10;1.00
9885;DHT22;4981;50.966;4.842;2022-09-30T00:17:04;7.10;1.00
9885;DHT22;4981;50.966;4.842;2022-09-30T00:19:33;7.00;1.00
9885;DHT22;4981;50.966;4.842;2022-09-30T00:22:00;7.00;1.00
9885;DHT22;4981;50.966;4.842;2022-09-30T00:24:28;7.00;1.00
9885;DHT22;4981;50.966;4.842;2022-09-30T00:26:55;6.90;1.00
9885;DHT22;4981;50.966;4.842;2022-09-30T00:29:23;6.90;1.00
9885;DHT22;4981;50.966;4.842;2022-09-30T00:31:50;7.00;1.00
9885;DHT22;4981;50.966;4.842;2022-09-30T00:34:18;7.10;1.00
9885;DHT22;4981;50.966;4.842;2022-09-30T00:36:49;7.00;1.00
9885;DHT22;4981;50.966;4.842;2022-09-30T00:39:18;7.00;1.00
9885;DHT22;4981;50.966;4.842;2022-09-30T00:41:48;7.00;1.00
9885;DHT22;4981;50.966;4.842;2022-09-30T00:44:49;6.90;1.00
9885;DHT22;4981;50.966;4.842;2022-09-30T00:47:36;6.90;1.00
9885;DHT22;4981;50.966;4.842;2022-09-30T00:50:14;6.80;1.00
9885;DHT22;4981;50.966;4.842;2022-09-30T00:52:49;6.80;1.00
9885;DHT22;4981;50.966;4.842;2022-09-30T00:55:33;6.80;1.00
9885;DHT22;4981;50.966;4.842;2022-09-30T00:58:04;6.90;1.00
9885;DHT22;4981;50.966;4.842;2022-09-30T01:00:32;6.70;1.00
9885;DHT22;4981;50.966;4.842;2022-09-30T01:03:00;6.70;1.00
9885;DHT22;4981;50.966;4.842;2022-09-30T01:05:27;6.80;1.00
9885;DHT22;4981;50.966;4.842;2022-09-30T01:08:00;6.80;1.00
9885;DHT22;4981;50.966;4.842;2022-09-30T01:10:28;6.80;1.00
9885;DHT22;4981;50.966;4.842;2022-09-30T01:12:56;6.80;1.00
9885;DHT22;4981;50.966;4.842;2022-09-30T01:15:32;6.90;1.00
9885;DHT22;4981;50.966;4.842;2022-09-30T01:18:06;6.90;1.00
9885;DHT22;4981;50.966;4.842;2022-09-30T01:24:05;6.80;1.00
9885;DHT22;4981;50.966;4.842;2022-09-30T01:30:06;6.70;1.00
9885;DHT22;4981;50.966;4.842;2022-09-30T01:33:09;6.80;1.00
9885;DHT22;4981;50.966;4.842;2022-09-30T01:35:54;6.70;1.00
9885;DHT22;4981;50.966;4.842;2022-09-30T01:38:26;6.60;1.00
9885;DHT22;4981;50.966;4.842;2022-09-30T01:41:02;6.60;1.00
9885;DHT22;4981;50.966;4.842;2022-09-30T01:43:39;6.70;1.00
9885;DHT22;4981;50.966;4.842;2022-09-30T01:46:16;6.60;1.00
9885;DHT22;4981;50.966;4.842;2022-09-30T01:48:54;6.60;1.00
9885;DHT22;4981;50.966;4.842;2022-09-30T01:51:31;6.50;1.00
9885;DHT22;4981;50.966;4.842;2022-09-30T01:54:03;6.50;1.00
9885;DHT22;4981;50.966;4.842;2022-09-30T01:56:40;6.50;1.00
9885;DHT22;4981;50.966;4.842;2022-09-30T01:59:11;6.50;1.00
9885;DHT22;4981;50.966;4.842;2022-09-30T02:01:44;6.50;1.00
9885;DHT22;4981;50.966;4.842;2022-09-30T02:04:19;6.70;1.00
9885;DHT22;4981;50.966;4.842;2022-09-30T02:06:51;6.50;1.00
9885;DHT22;4981;50.966;4.842;2022-09-30T02:09:23;6.40;1.00
9885;DHT22;4981;50.966;4.842;2022-09-30T02:11:53;6.40;1.00
9885;DHT22;4981;50.966;4.842;2022-09-30T02:14:26;6.60;1.00
9885;DHT22;4981;50.966;4.842;2022-09-30T02:16:57;6.40;1.00
9885;DHT22;4981;50.966;4.842;2022-09-30T02:19:32;6.50;1.00
9885;DHT22;4981;50.966;4.842;2022-09-30T02:22:06;6.50;1.00
9885;DHT22;4981;50.966;4.842;2022-09-30T02:24:37;6.30;1.00
9885;DHT22;4981;50.966;4.842;2022-09-30T02:27:09;6.40;1.00
9885;DHT22;4981;50.966;4.842;2022-09-30T02:29:42;6.40;1.00
9885;DHT22;4981;50.966;4.842;2022-09-30T02:32:16;6.30;1.00
9885;DHT22;4981;50.966;4.842;2022-09-30T02:34:49;6.30;1.00
9885;DHT22;4981;50.966;4.842;2022-09-30T02:37:23;6.40;1.00
9885;DHT22;4981;50.966;4.842;2022-09-30T02:39:55;6.30;1.00
9885;DHT22;4981;50.966;4.842;2022-09-30T02:42:25;6.50;1.00
9885;DHT22;4981;50.966;4.842;2022-09-30T02:44:56;6.40;1.00
9885;DHT22;4981;50.966;4.842;2022-09-30T02:47:29;6.40;1.00
9885;DHT22;4981;50.966;4.842;2022-09-30T02:50:06;6.30;1.00
9885;DHT22;4981;50.966;4.842;2022-09-30T02:52:44;6.40;1.00
9885;DHT22;4981;50.966;4.842;2022-09-30T02:55:18;6.50;1.00
9885;DHT22;4981;50.966;4.842;2022-09-30T02:57:59;6.50;1.00
9885;DHT22;4981;50.966;4.842;2022-09-30T03:00:30;6.40;1.00
9885;DHT22;4981;50.966;4.842;2022-09-30T03:03:02;6.40;1.00
9885;DHT22;4981;50.966;4.842;2022-09-30T03:05:32;6.40;1.00
9885;DHT22;4981;50.966;4.842;2022-09-30T03:08:00;6.50;1.00
9885;DHT22;4981;50.966;4.842;2022-09-30T03:10:28;6.60;1.00
9885;DHT22;4981;50.966;4.842;2022-09-30T03:13:14;6.70;1.00
9885;DHT22;4981;50.966;4.842;2022-09-30T03:15:57;6.40;1.00
9885;DHT22;4981;50.966;4.842;2022-09-30T03:18:36;6.50;1.00
9885;DHT22;4981;50.966;4.842;2022-09-30T03:21:17;6.50;1.00
9885;DHT22;4981;50.966;4.842;2022-09-30T03:27:13;6.50;1.00
9885;DHT22;4981;50.966;4.842;2022-09-30T03:29:50;6.50;1.00
9885;DHT22;4981;50.966;4.842;2022-09-30T03:32:33;6.50;1.00
9885;DHT22;4981;50.966;4.842;2022-09-30T03:35:13;6.70;1.00
9885;DHT22;4981;50.966;4.842;2022-09-30T03:37:50;6.60;1.00
9885;DHT22;4981;50.966;4.842;2022-09-30T03:40:24;6.60;1.00
9885;DHT22;4981;50.966;4.842;2022-09-30T03:42:57;6.50;1.00
9885;DHT22;4981;50.966;4.842;2022-09-30T03:45:30;6.40;1.00
9885;DHT22;4981;50.966;4.842;2022-09-30T03:48:03;6.40;1.00
9885;DHT22;4981;50.966;4.842;2022-09-30T03:50:33;6.70;1.00
9885;DHT22;4981;50.966;4.842;2022-09-30T03:53:02;6.80;1.00
9885;DHT22;4981;50.966;4.842;2022-09-30T03:55:31;6.90;1.00
9885;DHT22;4981;50.966;4.842;2022-09-30T03:57:58;6.90;1.00
9885;DHT22;4981;50.966;4.842;2022-09-30T04:00:26;6.80;1.00
9885;DHT22;4981;50.966;4.842;2022-09-30T04:02:56;6.90;1.00
9885;DHT22;4981;50.966;4.842;2022-09-30T04:05:24;6.70;1.00
9885;DHT22;4981;50.966;4.842;2022-09-30T04:07:51;6.50;1.00
9885;DHT22;4981;50.966;4.842;2022-09-30T04:10:20;6.60;1.00
9885;DHT22;4981;50.966;4.842;2022-09-30T04:12:48;6.60;1.00
9885;DHT22;4981;50.966;4.842;2022-09-30T04:15:15;6.70;1.00
9885;DHT22;4981;50.966;4.842;2022-09-30T04:17:42;6.80;1.00
9885;DHT22;4981;50.966;4.842;2022-09-30T04:20:13;6.80;1.00
9885;DHT22;4981;50.966;4.842;2022-09-30T04:22:42;6.80;1.00
9885;DHT22;4981;50.966;4.842;2022-09-30T04:25:10;6.80;1.00
9885;DHT22;4981;50.966;4.842;2022-09-30T04:27:39;6.80;1.00
9885;DHT22;4981;50.966;4.842;2022-09-30T04:30:06;6.50;1.00
9885;DHT22;4981;50.966;4.842;2022-09-30T04:32:34;6.50;1.00
9885;DHT22;4981;50.966;4.842;2022-09-30T04:35:01;5.90;1.00
9885;DHT22;4981;50.966;4.842;2022-09-30T04:37:29;6.40;1.00
9885;DHT22;4981;50.966;4.842;2022-09-30T04:39:57;6.70;1.00
9885;DHT22;4981;50.966;4.842;2022-09-30T04:42:24;6.70;1.00
9885;DHT22;4981;50.966;4.842;2022-09-30T04:44:53;6.30;1.00
9885;DHT22;4981;50.966;4.842;2022-09-30T04:47:22;6.70;1.00
9885;DHT22;4981;50.966;4.842;2022-09-30T04:49:50;6.70;1.00
9885;DHT22;4981;50.966;4.842;2022-09-30T04:52:17;6.70;1.00
9885;DHT22;4981;50.966;4.842;2022-09-30T04:54:44;6.70;1.00
9885;DHT22;4981;50.966;4.842;2022-09-30T04:57:12;6.90;1.00
9885;DHT22;4981;50.966;4.842;2022-09-30T04:59:39;6.70;1.00
9885;DHT22;4981;50.966;4.842;2022-09-30T05:02:08;6.60;1.00
9885;DHT22;4981;50.966;4.842;2022-09-30T05:04:37;6.40;1.00
9885;DHT22;4981;50.966;4.842;2022-09-30T05:07:04;6.40;1.00
9885;DHT22;4981;50.966;4.842;2022-09-30T05:09:33;6.30;1.00
9885;DHT22;4981;50.966;4.842;2022-09-30T05:12:01;6.40;1.00
9885;DHT22;4981;50.966;4.842;2022-09-30T05:14:29;6.30;1.00
9885;DHT22;4981;50.966;4.842;2022-09-30T05:16:57;6.20;1.00
9885;DHT22;4981;50.966;4.842;2022-09-30T05:19:27;6.20;1.00
9885;DHT22;4981;50.966;4.842;2022-09-30T05:21:54;6.30;1.00
9885;DHT22;4981;50.966;4.842;2022-09-30T05:24:21;6.40;1.00
9885;DHT22;4981;50.966;4.842;2022-09-30T05:26:49;6.30;1.00
9885;DHT22;4981;50.966;4.842;2022-09-30T05:29:16;6.30;1.00
9885;DHT22;4981;50.966;4.842;2022-09-30T05:31:44;6.40;1.00
9885;DHT22;4981;50.966;4.842;2022-09-30T05:34:11;6.40;1.00
9885;DHT22;4981;50.966;4.842;2022-09-30T05:36:42;6.40;1.00
9885;DHT22;4981;50.966;4.842;2022-09-30T05:39:10;6.40;1.00
9885;DHT22;4981;50.966;4.842;2022-09-30T05:41:37;6.50;1.00
9885;DHT22;4981;50.966;4.842;2022-09-30T05:44:05;6.50;1.00
9885;DHT22;4981;50.966;4.842;2022-09-30T05:46:34;6.50;1.00
9885;DHT22;4981;50.966;4.842;2022-09-30T05:49:01;6.50;1.00
9885;DHT22;4981;50.966;4.842;2022-09-30T05:51:28;6.50;1.00
9885;DHT22;4981;50.966;4.842;2022-09-30T05:53:58;6.50;1.00
9885;DHT22;4981;50.966;4.842;2022-09-30T05:56:25;6.50;1.00
9885;DHT22;4981;50.966;4.842;2022-09-30T05:58:53;6.50;1.00
9885;DHT22;4981;50.966;4.842;2022-09-30T06:01:20;6.60;1.00
9885;DHT22;4981;50.966;4.842;2022-09-30T06:03:47;6.60;1.00
9885;DHT22;4981;50.966;4.842;2022-09-30T06:06:15;6.60;1.00
9885;DHT22;4981;50.966;4.842;2022-09-30T06:08:43;6.60;1.00
9885;DHT22;4981;50.966;4.842;2022-09-30T06:11:14;6.70;1.00
9885;DHT22;4981;50.966;4.842;2022-09-30T06:13:43;6.70;1.00
9885;DHT22;4981;50.966;4.842;2022-09-30T06:16:12;6.70;1.00
9885;DHT22;4981;50.966;4.842;2022-09-30T06:18:39;6.70;1.00
9885;DHT22;4981;50.966;4.842;2022-09-30T06:21:09;6.70;1.00
9885;DHT22;4981;50.966;4.842;2022-09-30T06:23:36;6.70;1.00
9885;DHT22;4981;50.966;4.842;2022-09-30T06:26:07;6.70;1.00
9885;DHT22;4981;50.966;4.842;2022-09-30T06:28:37;6.70;1.00
9885;DHT22;4981;50.966;4.842;2022-09-30T06:31:05;6.80;1.00
9885;DHT22;4981;50.966;4.842;2022-09-30T06:33:33;6.80;1.00
9885;DHT22;4981;50.966;4.842;2022-09-30T06:36:00;6.90;1.00
9885;DHT22;4981;50.966;4.842;2022-09-30T06:38:29;6.90;1.00
9885;DHT22;4981;50.966;4.842;2022-09-30T06:40:58;6.80;1.00
9885;DHT22;4981;50.966;4.842;2022-09-30T06:43:26;7.00;1.00
9885;DHT22;4981;50.966;4.842;2022-09-30T06:45:55;6.80;1.00
9885;DHT22;4981;50.966;4.842;2022-09-30T06:48:22;7.20;1.00
9885;DHT22;4981;50.966;4.842;2022-09-30T06:50:50;7.20;1.00
9885;DHT22;4981;50.966;4.842;2022-09-30T06:53:20;7.20;1.00
9885;DHT22;4981;50.966;4.842;2022-09-30T06:55:54;7.30;1.00
9885;DHT22;4981;50.966;4.842;2022-09-30T06:58:22;7.30;1.00
9885;DHT22;4981;50.966;4.842;2022-09-30T07:00:57;7.40;1.00
9885;DHT22;4981;50.966;4.842;2022-09-30T07:03:27;7.50;1.00
9885;DHT22;4981;50.966;4.842;2022-09-30T07:05:57;7.60;1.00
9885;DHT22;4981;50.966;4.842;2022-09-30T07:08:25;7.60;1.00
9885;DHT22;4981;50.966;4.842;2022-09-30T07:10:56;7.60;1.00
9885;DHT22;4981;50.966;4.842;2022-09-30T07:13:24;7.70;1.00
9885;DHT22;4981;50.966;4.842;2022-09-30T07:15:51;7.70;1.00
9885;DHT22;4981;50.966;4.842;2022-09-30T07:18:23;7.80;1.00
9885;DHT22;4981;50.966;4.842;2022-09-30T07:20:54;7.90;1.00
9885;DHT22;4981;50.966;4.842;2022-09-30T07:23:22;8.00;1.00
9885;DHT22;4981;50.966;4.842;2022-09-30T07:25:51;8.20;1.00
9885;DHT22;4981;50.966;4.842;2022-09-30T07:28:22;8.30;1.00
9885;DHT22;4981;50.966;4.842;2022-09-30T07:30:52;8.30;1.00
9885;DHT22;4981;50.966;4.842;2022-09-30T07:33:22;8.40;1.00
9885;DHT22;4981;50.966;4.842;2022-09-30T07:35:51;8.50;1.00
9885;DHT22;4981;50.966;4.842;2022-09-30T07:38:19;8.50;1.00
9885;DHT22;4981;50.966;4.842;2022-09-30T07:40:52;8.60;1.00
9885;DHT22;4981;50.966;4.842;2022-09-30T07:43:20;8.70;1.00
9885;DHT22;4981;50.966;4.842;2022-09-30T07:45:47;8.80;1.00
9885;DHT22;4981;50.966;4.842;2022-09-30T07:48:16;8.90;1.00
9885;DHT22;4981;50.966;4.842;2022-09-30T07:51:03;9.00;1.00
9885;DHT22;4981;50.966;4.842;2022-09-30T07:53:30;9.10;1.00
9885;DHT22;4981;50.966;4.842;2022-09-30T07:56:01;9.20;1.00
9885;DHT22;4981;50.966;4.842;2022-09-30T07:58:29;9.30;1.00
9885;DHT22;4981;50.966;4.842;2022-09-30T08:00:57;9.40;1.00
9885;DHT22;4981;50.966;4.842;2022-09-30T08:03:24;9.40;1.00
9885;DHT22;4981;50.966;4.842;2022-09-30T08:05:52;9.40;1.00
9885;DHT22;4981;50.966;4.842;2022-09-30T08:08:20;9.60;1.00
9885;DHT22;4981;50.966;4.842;2022-09-30T08:10:48;9.70;1.00
9885;DHT22;4981;50.966;4.842;2022-09-30T08:13:15;9.80;1.00
9885;DHT22;4981;50.966;4.842;2022-09-30T08:15:44;9.90;1.00
9885;DHT22;4981;50.966;4.842;2022-09-30T08:18:11;10.00;1.00
9885;DHT22;4981;50.966;4.842;2022-09-30T08:20:39;10.10;1.00
9885;DHT22;4981;50.966;4.842;2022-09-30T08:23:06;10.20;1.00
9885;DHT22;4981;50.966;4.842;2022-09-30T08:25:35;10.30;1.00
9885;DHT22;4981;50.966;4.842;2022-09-30T08:28:02;10.30;1.00
9885;DHT22;4981;50.966;4.842;2022-09-30T08:30:30;10.30;1.00
9885;DHT22;4981;50.966;4.842;2022-09-30T08:32:57;10.40;1.00
9885;DHT22;4981;50.966;4.842;2022-09-30T08:35:24;10.50;1.00
9885;DHT22;4981;50.966;4.842;2022-09-30T08:37:52;10.30;1.00
9885;DHT22;4981;50.966;4.842;2022-09-30T08:40:23;10.80;1.00
9885;DHT22;4981;50.966;4.842;2022-09-30T08:45:52;10.90;1.00
9885;DHT22;4981;50.966;4.842;2022-09-30T08:48:31;11.00;1.00
9885;DHT22;4981;50.966;4.842;2022-09-30T08:51:08;11.00;1.00
9885;DHT22;4981;50.966;4.842;2022-09-30T08:53:40;11.00;1.00
9885;DHT22;4981;50.966;4.842;2022-09-30T08:56:11;11.00;1.00
9885;DHT22;4981;50.966;4.842;2022-09-30T08:58:47;11.10;1.00
9885;DHT22;4981;50.966;4.842;2022-09-30T09:01:22;11.10;1.00
9885;DHT22;4981;50.966;4.842;2022-09-30T09:03:52;11.30;1.00
9885;DHT22;4981;50.966;4.842;2022-09-30T09:06:25;11.40;1.00
9885;DHT22;4981;50.966;4.842;2022-09-30T09:11:51;11.80;1.00
9885;DHT22;4981;50.966;4.842;2022-09-30T09:14:37;11.50;1.00
9885;DHT22;4981;50.966;4.842;2022-09-30T09:17:18;11.70;1.00
9885;DHT22;4981;50.966;4.842;2022-09-30T09:19:56;11.90;1.00
9885;DHT22;4981;50.966;4.842;2022-09-30T09:22:29;12.00;1.00
9885;DHT22;4981;50.966;4.842;2022-09-30T09:24:58;11.90;1.00
9885;DHT22;4981;50.966;4.842;2022-09-30T09:27:30;11.90;1.00
9885;DHT22;4981;50.966;4.842;2022-09-30T09:30:06;12.00;1.00
9885;DHT22;4981;50.966;4.842;2022-09-30T09:32:35;12.00;1.00
9885;DHT22;4981;50.966;4.842;2022-09-30T09:35:11;12.00;1.00
9885;DHT22;4981;50.966;4.842;2022-09-30T09:37:46;12.20;1.00
9885;DHT22;4981;50.966;4.842;2022-09-30T09:40:40;12.30;1.00
9885;DHT22;4981;50.966;4.842;2022-09-30T09:43:28;12.40;1.00
9885;DHT22;4981;50.966;4.842;2022-09-30T09:46:06;12.60;1.00
9885;DHT22;4981;50.966;4.842;2022-09-30T09:48:35;12.60;1.00
9885;DHT22;4981;50.966;4.842;2022-09-30T09:51:09;12.60;1.00
9885;DHT22;4981;50.966;4.842;2022-09-30T09:53:47;12.70;1.00
9885;DHT22;4981;50.966;4.842;2022-09-30T09:56:17;12.80;1.00
9885;DHT22;4981;50.966;4.842;2022-09-30T09:59:06;13.00;1.00
9885;DHT22;4981;50.966;4.842;2022-09-30T10:01:38;12.90;1.00
9885;DHT22;4981;50.966;4.842;2022-09-30T10:04:07;13.10;1.00
9885;DHT22;4981;50.966;4.842;2022-09-30T10:06:44;13.10;1.00
9885;DHT22;4981;50.966;4.842;2022-09-30T10:09:27;13.00;1.00
9885;DHT22;4981;50.966;4.842;2022-09-30T10:12:17;13.20;1.00
9885;DHT22;4981;50.966;4.842;2022-09-30T10:14:50;13.10;1.00
9885;DHT22;4981;50.966;4.842;2022-09-30T10:17:21;13.30;1.00
9885;DHT22;4981;50.966;4.842;2022-09-30T10:19:58;13.40;1.00
9885;DHT22;4981;50.966;4.842;2022-09-30T10:22:27;13.40;1.00
9885;DHT22;4981;50.966;4.842;2022-09-30T10:25:13;13.50;1.00
9885;DHT22;4981;50.966;4.842;2022-09-30T10:27:47;13.70;1.00
9885;DHT22;4981;50.966;4.842;2022-09-30T10:30:37;13.90;1.00
9885;DHT22;4981;50.966;4.842;2022-09-30T10:33:23;13.70;1.00
9885;DHT22;4981;50.966;4.842;2022-09-30T10:36:05;13.80;1.00
9885;DHT22;4981;50.966;4.842;2022-09-30T10:38:34;13.70;1.00
9885;DHT22;4981;50.966;4.842;2022-09-30T10:41:03;13.70;1.00
9885;DHT22;4981;50.966;4.842;2022-09-30T10:43:36;13.90;1.00
9885;DHT22;4981;50.966;4.842;2022-09-30T10:46:05;13.90;1.00
9885;DHT22;4981;50.966;4.842;2022-09-30T10:48:37;14.00;1.00
9885;DHT22;4981;50.966;4.842;2022-09-30T10:51:05;14.00;1.00
9885;DHT22;4981;50.966;4.842;2022-09-30T10:53:44;14.20;1.00
9885;DHT22;4981;50.966;4.842;2022-09-30T10:56:11;14.40;1.00
9885;DHT22;4981;50.966;4.842;2022-09-30T10:58:45;14.30;1.00
9885;DHT22;4981;50.966;4.842;2022-09-30T11:01:20;14.30;1.00
9885;DHT22;4981;50.966;4.842;2022-09-30T11:03:57;14.80;1.00
9885;DHT22;4981;50.966;4.842;2022-09-30T11:06:30;15.00;1.00
9885;DHT22;4981;50.966;4.842;2022-09-30T11:09:03;15.20;1.00
9885;DHT22;4981;50.966;4.842;2022-09-30T11:11:37;15.50;1.00
9885;DHT22;4981;50.966;4.842;2022-09-30T11:14:19;15.70;1.00
9885;DHT22;4981;50.966;4.842;2022-09-30T11:16:55;15.50;1.00
9885;DHT22;4981;50.966;4.842;2022-09-30T11:19:31;15.20;1.00
9885;DHT22;4981;50.966;4.842;2022-09-30T11:22:08;15.30;1.00
9885;DHT22;4981;50.966;4.842;2022-09-30T11:24:43;15.20;1.00
9885;DHT22;4981;50.966;4.842;2022-09-30T11:27:17;14.90;1.00
9885;DHT22;4981;50.966;4.842;2022-09-30T11:30:00;14.90;1.00
9885;DHT22;4981;50.966;4.842;2022-09-30T11:32:43;14.80;1.00
9885;DHT22;4981;50.966;4.842;2022-09-30T11:35:30;14.90;1.00
9885;DHT22;4981;50.966;4.842;2022-09-30T11:38:09;15.30;1.00
9885;DHT22;4981;50.966;4.842;2022-09-30T11:40:42;15.40;1.00
9885;DHT22;4981;50.966;4.842;2022-09-30T11:43:24;15.30;1.00
9885;DHT22;4981;50.966;4.842;2022-09-30T11:46:17;15.20;1.00
9885;DHT22;4981;50.966;4.842;2022-09-30T11:49:11;15.30;1.00
9885;DHT22;4981;50.966;4.842;2022-09-30T11:51:49;16.60;1.00
9885;DHT22;4981;50.966;4.842;2022-09-30T11:54:31;17.60;1.00
9885;DHT22;4981;50.966;4.842;2022-09-30T11:57:08;18.20;1.00
9885;DHT22;4981;50.966;4.842;2022-09-30T11:59:44;18.30;1.00
9885;DHT22;4981;50.966;4.842;2022-09-30T12:02:25;17.50;1.00
9885;DHT22;4981;50.966;4.842;2022-09-30T12:04:57;17.80;1.00
9885;DHT22;4981;50.966;4.842;2022-09-30T12:07:34;18.30;1.00
9885;DHT22;4981;50.966;4.842;2022-09-30T12:10:15;18.60;1.00
9885;DHT22;4981;50.966;4.842;2022-09-30T12:12:49;18.30;1.00
9885;DHT22;4981;50.966;4.842;2022-09-30T12:15:19;17.50;1.00
9885;DHT22;4981;50.966;4.842;2022-09-30T12:17:51;17.10;1.00
9885;DHT22;4981;50.966;4.842;2022-09-30T12:20:24;16.80;1.00
9885;DHT22;4981;50.966;4.842;2022-09-30T12:22:59;16.50;1.00
9885;DHT22;4981;50.966;4.842;2022-09-30T12:25:30;16.50;1.00
9885;DHT22;4981;50.966;4.842;2022-09-30T12:28:02;16.70;1.00
9885;DHT22;4981;50.966;4.842;2022-09-30T12:30:56;17.10;1.00
9885;DHT22;4981;50.966;4.842;2022-09-30T12:33:38;17.60;1.00
9885;DHT22;4981;50.966;4.842;2022-09-30T12:36:30;18.30;1.00
9885;DHT22;4981;50.966;4.842;2022-09-30T12:42:45;18.60;1.00
9885;DHT22;4981;50.966;4.842;2022-09-30T12:45:54;18.80;1.00
9885;DHT22;4981;50.966;4.842;2022-09-30T12:48:28;19.00;1.00
9885;DHT22;4981;50.966;4.842;2022-09-30T12:50:59;18.60;1.00
9885;DHT22;4981;50.966;4.842;2022-09-30T12:53:28;17.50;1.00
9885;DHT22;4981;50.966;4.842;2022-09-30T12:56:02;16.80;1.00
9885;DHT22;4981;50.966;4.842;2022-09-30T12:58:35;16.60;1.00
9885;DHT22;4981;50.966;4.842;2022-09-30T13:01:10;16.50;1.00
9885;DHT22;4981;50.966;4.842;2022-09-30T13:03:45;16.50;1.00
9885;DHT22;4981;50.966;4.842;2022-09-30T13:06:14;16.50;1.00
9885;DHT22;4981;50.966;4.842;2022-09-30T13:08:45;16.50;1.00
9885;DHT22;4981;50.966;4.842;2022-09-30T13:11:40;16.50;1.00
9885;DHT22;4981;50.966;4.842;2022-09-30T13:14:23;16.70;1.00
9885;DHT22;4981;50.966;4.842;2022-09-30T13:20:00;16.60;1.00
9885;DHT22;4981;50.966;4.842;2022-09-30T13:22:55;16.60;1.00
9885;DHT22;4981;50.966;4.842;2022-09-30T13:25:23;17.50;1.00
9885;DHT22;4981;50.966;4.842;2022-09-30T13:28:25;17.50;1.00
9885;DHT22;4981;50.966;4.842;2022-09-30T13:31:13;18.10;1.00
9885;DHT22;4981;50.966;4.842;2022-09-30T13:33:45;18.90;1.00
9885;DHT22;4981;50.966;4.842;2022-09-30T13:36:28;18.70;1.00
9885;DHT22;4981;50.966;4.842;2022-09-30T13:39:16;18.70;1.00
9885;DHT22;4981;50.966;4.842;2022-09-30T13:41:48;18.50;1.00
9885;DHT22;4981;50.966;4.842;2022-09-30T13:44:22;18.40;1.00
9885;DHT22;4981;50.966;4.842;2022-09-30T13:46:57;18.50;1.00
9885;DHT22;4981;50.966;4.842;2022-09-30T13:49:36;18.50;1.00
9885;DHT22;4981;50.966;4.842;2022-09-30T13:52:06;18.40;1.00
9885;DHT22;4981;50.966;4.842;2022-09-30T13:54:37;18.50;1.00
9885;DHT22;4981;50.966;4.842;2022-09-30T13:57:15;18.70;1.00
9885;DHT22;4981;50.966;4.842;2022-09-30T13:59:51;19.20;1.00
9885;DHT22;4981;50.966;4.842;2022-09-30T14:05:53;19.00;1.00
9885;DHT22;4981;50.966;4.842;2022-09-30T14:12:13;19.40;1.00
9885;DHT22;4981;50.966;4.842;2022-09-30T14:15:25;19.40;1.00
9885;DHT22;4981;50.966;4.842;2022-09-30T14:18:27;19.30;1.00
9885;DHT22;4981;50.966;4.842;2022-09-30T14:21:07;19.40;1.00
9885;DHT22;4981;50.966;4.842;2022-09-30T14:23:38;18.30;1.00
9885;DHT22;4981;50.966;4.842;2022-09-30T14:26:18;18.10;1.00
9885;DHT22;4981;50.966;4.842;2022-09-30T14:28:56;18.50;1.00
9885;DHT22;4981;50.966;4.842;2022-09-30T14:31:27;18.10;1.00
9885;DHT22;4981;50.966;4.842;2022-09-30T14:33:58;18.70;1.00
9885;DHT22;4981;50.966;4.842;2022-09-30T14:36:29;18.90;1.00
9885;DHT22;4981;50.966;4.842;2022-09-30T14:38:59;18.80;1.00
9885;DHT22;4981;50.966;4.842;2022-09-30T14:41:27;18.60;1.00
9885;DHT22;4981;50.966;4.842;2022-09-30T14:43:57;19.10;1.00
9885;DHT22;4981;50.966;4.842;2022-09-30T14:46:31;19.40;1.00
9885;DHT22;4981;50.966;4.842;2022-09-30T14:49:02;19.40;1.00
9885;DHT22;4981;50.966;4.842;2022-09-30T14:51:37;19.40;1.00
9885;DHT22;4981;50.966;4.842;2022-09-30T14:54:15;19.60;1.00
9885;DHT22;4981;50.966;4.842;2022-09-30T14:56:43;19.70;1.00
9885;DHT22;4981;50.966;4.842;2022-09-30T14:59:15;19.10;1.00
9885;DHT22;4981;50.966;4.842;2022-09-30T15:01:45;19.30;1.00
9885;DHT22;4981;50.966;4.842;2022-09-30T15:04:16;19.40;1.00
9885;DHT22;4981;50.966;4.842;2022-09-30T15:06:48;18.70;1.00
9885;DHT22;4981;50.966;4.842;2022-09-30T15:09:20;18.80;1.00
9885;DHT22;4981;50.966;4.842;2022-09-30T15:11:49;19.10;1.00
9885;DHT22;4981;50.966;4.842;2022-09-30T15:14:18;18.50;1.00
9885;DHT22;4981;50.966;4.842;2022-09-30T15:16:47;19.00;1.00
9885;DHT22;4981;50.966;4.842;2022-09-30T15:19:18;19.70;1.00
9885;DHT22;4981;50.966;4.842;2022-09-30T15:21:49;19.70;1.00
9885;DHT22;4981;50.966;4.842;2022-09-30T15:24:19;18.90;1.00
9885;DHT22;4981;50.966;4.842;2022-09-30T15:26:47;18.10;1.00
9885;DHT22;4981;50.966;4.842;2022-09-30T15:29:15;17.40;1.00
9885;DHT22;4981;50.966;4.842;2022-09-30T15:31:44;17.70;1.00
9885;DHT22;4981;50.966;4.842;2022-09-30T15:34:14;17.60;1.00
9885;DHT22;4981;50.966;4.842;2022-09-30T15:36:43;17.70;1.00
9885;DHT22;4981;50.966;4.842;2022-09-30T15:39:19;17.80;1.00
9885;DHT22;4981;50.966;4.842;2022-09-30T15:41:48;18.30;1.00
9885;DHT22;4981;50.966;4.842;2022-09-30T15:44:18;18.70;1.00
9885;DHT22;4981;50.966;4.842;2022-09-30T15:47:05;18.40;1.00
9885;DHT22;4981;50.966;4.842;2022-09-30T15:49:44;18.30;1.00
9885;DHT22;4981;50.966;4.842;2022-09-30T15:52:28;18.20;1.00
9885;DHT22;4981;50.966;4.842;2022-09-30T15:55:38;18.50;1.00
9885;DHT22;4981;50.966;4.842;2022-09-30T15:58:29;18.40;1.00
9885;DHT22;4981;50.966;4.842;2022-09-30T16:01:14;18.20;1.00
9885;DHT22;4981;50.966;4.842;2022-09-30T16:03:47;17.90;1.00
9885;DHT22;4981;50.966;4.842;2022-09-30T16:06:17;17.60;1.00
9885;DHT22;4981;50.966;4.842;2022-09-30T16:08:53;17.40;1.00
9885;DHT22;4981;50.966;4.842;2022-09-30T16:11:29;17.80;1.00
9885;DHT22;4981;50.966;4.842;2022-09-30T16:13:58;17.20;1.00
9885;DHT22;4981;50.966;4.842;2022-09-30T16:16:29;17.00;1.00
9885;DHT22;4981;50.966;4.842;2022-09-30T16:18:59;16.90;1.00
9885;DHT22;4981;50.966;4.842;2022-09-30T16:21:35;16.70;1.00
9885;DHT22;4981;50.966;4.842;2022-09-30T16:24:42;16.50;1.00
9885;DHT22;4981;50.966;4.842;2022-09-30T16:27:27;16.40;1.00
9885;DHT22;4981;50.966;4.842;2022-09-30T16:29:59;16.30;1.00
9885;DHT22;4981;50.966;4.842;2022-09-30T16:32:30;16.30;1.00
9885;DHT22;4981;50.966;4.842;2022-09-30T16:34:58;16.10;1.00
9885;DHT22;4981;50.966;4.842;2022-09-30T16:37:25;16.20;1.00
9885;DHT22;4981;50.966;4.842;2022-09-30T16:39:54;16.00;1.00
9885;DHT22;4981;50.966;4.842;2022-09-30T16:42:24;16.10;1.00
9885;DHT22;4981;50.966;4.842;2022-09-30T16:44:53;16.10;1.00
9885;DHT22;4981;50.966;4.842;2022-09-30T16:47:21;15.90;1.00
9885;DHT22;4981;50.966;4.842;2022-09-30T16:49:48;15.90;1.00
9885;DHT22;4981;50.966;4.842;2022-09-30T16:52:16;15.80;1.00
9885;DHT22;4981;50.966;4.842;2022-09-30T16:54:43;15.80;1.00
9885;DHT22;4981;50.966;4.842;2022-09-30T16:57:12;15.70;1.00
9885;DHT22;4981;50.966;4.842;2022-09-30T16:59:41;15.50;1.00
9885;DHT22;4981;50.966;4.842;2022-09-30T17:02:14;15.50;1.00
9885;DHT22;4981;50.966;4.842;2022-09-30T17:04:42;15.30;1.00
9885;DHT22;4981;50.966;4.842;2022-09-30T17:07:12;15.30;1.00
9885;DHT22;4981;50.966;4.842;2022-09-30T17:09:43;15.20;1.00
9885;DHT22;4981;50.966;4.842;2022-09-30T17:12:11;15.30;1.00
9885;DHT22;4981;50.966;4.842;2022-09-30T17:14:39;15.20;1.00
9885;DHT22;4981;50.966;4.842;2022-09-30T17:17:08;15.20;1.00
9885;DHT22;4981;50.966;4.842;2022-09-30T17:19:38;15.10;1.00
9885;DHT22;4981;50.966;4.842;2022-09-30T17:22:05;15.10;1.00
9885;DHT22;4981;50.966;4.842;2022-09-30T17:24:32;15.00;1.00
9885;DHT22;4981;50.966;4.842;2022-09-30T17:27:00;15.00;1.00
9885;DHT22;4981;50.966;4.842;2022-09-30T17:29:27;14.90;1.00
9885;DHT22;4981;50.966;4.842;2022-09-30T17:31:55;14.90;1.00
9885;DHT22;4981;50.966;4.842;2022-09-30T17:34:23;14.90;1.00
9885;DHT22;4981;50.966;4.842;2022-09-30T17:36:54;14.80;1.00